sensor_id;sensor_type;location;lat;lon;timestamp;pressure;altitude;pressure_sealevel;temperature;humidity
60015;BME280;45867;52.480;6.056;2023-06-22T00:00:43;101936.53;;;16.59;100.00
60015;BME280;45867;52.480;6.056;2023-06-22T00:03:09;101934.47;;;16.51;100.00
60015;BME280;45867;52.480;6.056;2023-06-22T00:05:35;101934.19;;;16.48;100.00
60015;BME280;45867;52.480;6.056;2023-06-22T00:08:04;101925.66;;;16.46;100.00
60015;BME280;45867;52.480;6.056;2023-06-22T00:10:30;101918.25;;;16.37;100.00
60015;BME280;45867;52.480;6.056;2023-06-22T00:12:55;101913.94;;;16.36;100.00
60015;BME280;45867;52.480;6.056;2023-06-22T00:15:21;101921.47;;;16.34;100.00
60015;BME280;45867;52.480;6.056;2023-06-22T00:17:46;101924.69;;;16.31;100.00
60015;BME280;45867;52.480;6.056;2023-06-22T00:20:11;101917.97;;;16.34;100.00
60015;BME280;45867;52.480;6.056;2023-06-22T00:22:37;101908.41;;;16.28;100.00
60015;BME280;45867;52.480;6.056;2023-06-22T00:25:06;101908.16;;;16.24;100.00
60015;BME280;45867;52.480;6.056;2023-06-22T00:27:32;101901.25;;;16.18;100.00
60015;BME280;45867;52.480;6.056;2023-06-22T00:29:57;101894.06;;;16.13;100.00
60015;BME280;45867;52.480;6.056;2023-06-22T00:32:22;101895.44;;;16.06;100.00
60015;BME280;45867;52.480;6.056;2023-06-22T00:34:47;101895.72;;;16.04;100.00
60015;BME280;45867;52.480;6.056;2023-06-22T00:37:13;101902.63;;;16.10;100.00
60015;BME280;45867;52.480;6.056;2023-06-22T00:39:38;101902.63;;;16.10;100.00
60015;BME280;45867;52.480;6.056;2023-06-22T00:42:04;101905.59;;;16.04;100.00
60015;BME280;45867;52.480;6.056;2023-06-22T00:44:29;101894.41;;;16.02;100.00
60015;BME280;45867;52.480;6.056;2023-06-22T00:46:55;101898.16;;;15.95;100.00
60015;BME280;45867;52.480;6.056;2023-06-22T00:49:20;101886.69;;;15.90;100.00
60015;BME280;45867;52.480;6.056;2023-06-22T00:51:46;101886.66;;;15.95;100.00
60015;BME280;45867;52.480;6.056;2023-06-22T00:54:13;101879.44;;;15.95;100.00
60015;BME280;45867;52.480;6.056;2023-06-22T00:56:40;101882.13;;;15.90;100.00
60015;BME280;45867;52.480;6.056;2023-06-22T00:59:06;101881.91;;;15.87;100.00
60015;BME280;45867;52.480;6.056;2023-06-22T01:01:31;101879.22;;;15.87;100.00
60015;BME280;45867;52.480;6.056;2023-06-22T01:03:57;101880.00;;;15.92;100.00
60015;BME280;45867;52.480;6.056;2023-06-22T01:06:33;101874.38;;;15.94;100.00
60015;BME280;45867;52.480;6.056;2023-06-22T01:09:15;101883.72;;;15.96;100.00
60015;BME280;45867;52.480;6.056;2023-06-22T01:12:11;101875.38;;;16.03;100.00
60015;BME280;45867;52.480;6.056;2023-06-22T01:14:44;101880.25;;;15.96;100.00
60015;BME280;45867;52.480;6.056;2023-06-22T01:17:11;101880.78;;;15.93;100.00
60015;BME280;45867;52.480;6.056;2023-06-22T01:19:52;101868.47;;;15.97;100.00
60015;BME280;45867;52.480;6.056;2023-06-22T01:22:24;101870.00;;;16.08;100.00
60015;BME280;45867;52.480;6.056;2023-06-22T01:27:55;101865.19;;;16.10;100.00
60015;BME280;45867;52.480;6.056;2023-06-22T01:30:23;101868.16;;;16.04;100.00
60015;BME280;45867;52.480;6.056;2023-06-22T01:32:53;101855.88;;;16.03;100.00
60015;BME280;45867;52.480;6.056;2023-06-22T01:35:20;101879.31;;;16.16;100.00
60015;BME280;45867;52.480;6.056;2023-06-22T01:37:46;101880.13;;;16.16;100.00
60015;BME280;45867;52.480;6.056;2023-06-22T01:40:13;101869.47;;;16.11;100.00
60015;BME280;45867;52.480;6.056;2023-06-22T01:42:40;101859.09;;;16.05;100.00
60015;BME280;45867;52.480;6.056;2023-06-22T01:45:07;101861.75;;;16.05;100.00
60015;BME280;45867;52.480;6.056;2023-06-22T01:47:33;101858.78;;;16.06;100.00
60015;BME280;45867;52.480;6.056;2023-06-22T01:49:59;101853.22;;;16.03;100.00
60015;BME280;45867;52.480;6.056;2023-06-22T01:52:24;101853.75;;;16.05;100.00
60015;BME280;45867;52.480;6.056;2023-06-22T01:54:50;101849.97;;;16.06;100.00
60015;BME280;45867;52.480;6.056;2023-06-22T01:57:15;101846.53;;;16.00;100.00
60015;BME280;45867;52.480;6.056;2023-06-22T02:00:09;101846.78;;;16.04;100.00
60015;BME280;45867;52.480;6.056;2023-06-22T02:02:40;101849.75;;;16.02;100.00
60015;BME280;45867;52.480;6.056;2023-06-22T02:05:09;101841.44;;;16.04;100.00
60015;BME280;45867;52.480;6.056;2023-06-22T02:07:47;101842.28;;;15.99;100.00
60015;BME280;45867;52.480;6.056;2023-06-22T02:10:16;101835.66;;;15.86;100.00
60015;BME280;45867;52.480;6.056;2023-06-22T02:12:45;101826.66;;;15.72;100.00
60015;BME280;45867;52.480;6.056;2023-06-22T02:15:11;101832.56;;;15.64;100.00
60015;BME280;45867;52.480;6.056;2023-06-22T02:17:38;101824.00;;;15.67;100.00
60015;BME280;45867;52.480;6.056;2023-06-22T02:20:04;101841.63;;;15.68;100.00
60015;BME280;45867;52.480;6.056;2023-06-22T02:22:33;101834.94;;;15.65;100.00
60015;BME280;45867;52.480;6.056;2023-06-22T02:24:59;101830.16;;;15.62;100.00
60015;BME280;45867;52.480;6.056;2023-06-22T02:27:24;101825.09;;;15.61;100.00
60015;BME280;45867;52.480;6.056;2023-06-22T02:29:50;101822.16;;;15.57;100.00
60015;BME280;45867;52.480;6.056;2023-06-22T02:32:15;101820.25;;;15.63;100.00
60015;BME280;45867;52.480;6.056;2023-06-22T02:34:42;101818.66;;;15.67;100.00
60015;BME280;45867;52.480;6.056;2023-06-22T02:37:08;101819.44;;;15.67;100.00
60015;BME280;45867;52.480;6.056;2023-06-22T02:39:33;101821.59;;;15.60;100.00
60015;BME280;45867;52.480;6.056;2023-06-22T02:42:00;101816.34;;;15.50;100.00
60015;BME280;45867;52.480;6.056;2023-06-22T02:44:25;101815.59;;;15.39;100.00
60015;BME280;45867;52.480;6.056;2023-06-22T02:46:51;101819.63;;;15.31;100.00
60015;BME280;45867;52.480;6.056;2023-06-22T02:49:16;101822.56;;;15.25;100.00
60015;BME280;45867;52.480;6.056;2023-06-22T02:51:45;101810.84;;;15.16;100.00
60015;BME280;45867;52.480;6.056;2023-06-22T02:54:11;101809.25;;;15.20;100.00
60015;BME280;45867;52.480;6.056;2023-06-22T02:56:36;101811.09;;;15.19;100.00
60015;BME280;45867;52.480;6.056;2023-06-22T02:59:02;101814.84;;;15.23;100.00
60015;BME280;45867;52.480;6.056;2023-06-22T03:01:28;101808.47;;;15.14;100.00
60015;BME280;45867;52.480;6.056;2023-06-22T03:03:55;101811.16;;;15.14;100.00
60015;BME280;45867;52.480;6.056;2023-06-22T03:06:21;101815.69;;;15.08;100.00
60015;BME280;45867;52.480;6.056;2023-06-22T03:08:51;101814.31;;;15.21;100.00
60015;BME280;45867;52.480;6.056;2023-06-22T03:11:17;101820.16;;;15.28;100.00
60015;BME280;45867;52.480;6.056;2023-06-22T03:13:43;101808.13;;;15.31;100.00
60015;BME280;45867;52.480;6.056;2023-06-22T03:16:08;101812.72;;;15.25;100.00
60015;BME280;45867;52.480;6.056;2023-06-22T03:18:34;101802.28;;;15.24;100.00
60015;BME280;45867;52.480;6.056;2023-06-22T03:20:59;101796.16;;;15.23;100.00
60015;BME280;45867;52.480;6.056;2023-06-22T03:23:25;101802.28;;;15.24;100.00
60015;BME280;45867;52.480;6.056;2023-06-22T03:25:50;101805.50;;;15.21;100.00
60015;BME280;45867;52.480;6.056;2023-06-22T03:28:15;101795.06;;;15.24;100.00
60015;BME280;45867;52.480;6.056;2023-06-22T03:30:41;101806.50;;;15.35;100.00
60015;BME280;45867;52.480;6.056;2023-06-22T03:33:06;101790.75;;;15.39;100.00
60015;BME280;45867;52.480;6.056;2023-06-22T03:35:32;101792.03;;;15.41;100.00
60015;BME280;45867;52.480;6.056;2023-06-22T03:37:57;101782.75;;;15.34;100.00
60015;BME280;45867;52.480;6.056;2023-06-22T03:40:22;101788.66;;;15.30;100.00
60015;BME280;45867;52.480;6.056;2023-06-22T03:42:48;101792.13;;;15.31;100.00
60015;BME280;45867;52.480;6.056;2023-06-22T03:45:13;101772.88;;;15.34;100.00
60015;BME280;45867;52.480;6.056;2023-06-22T03:47:38;101768.00;;;15.41;100.00
60015;BME280;45867;52.480;6.056;2023-06-22T03:50:04;101753.31;;;15.44;100.00
60015;BME280;45867;52.480;6.056;2023-06-22T03:52:31;101707.09;;;15.48;100.00
60015;BME280;45867;52.480;6.056;2023-06-22T03:54:57;101707.03;;;15.53;100.00
60015;BME280;45867;52.480;6.056;2023-06-22T03:57:23;101719.59;;;15.58;100.00
60015;BME280;45867;52.480;6.056;2023-06-22T03:59:48;101739.09;;;15.53;100.00
60015;BME280;45867;52.480;6.056;2023-06-22T04:02:13;101741.78;;;15.53;100.00
60015;BME280;45867;52.480;6.056;2023-06-22T04:04:39;101746.84;;;15.55;100.00
60015;BME280;45867;52.480;6.056;2023-06-22T04:07:05;101754.56;;;15.57;100.00
60015;BME280;45867;52.480;6.056;2023-06-22T04:09:30;101762.56;;;15.62;100.00
60015;BME280;45867;52.480;6.056;2023-06-22T04:11:56;101768.44;;;15.64;100.00
60015;BME280;45867;52.480;6.056;2023-06-22T04:14:21;101779.69;;;15.61;100.00
60015;BME280;45867;52.480;6.056;2023-06-22T04:16:47;101810.66;;;15.62;100.00
60015;BME280;45867;52.480;6.056;2023-06-22T04:19:12;101825.88;;;15.66;100.00
60015;BME280;45867;52.480;6.056;2023-06-22T04:21:42;101831.47;;;15.75;100.00
60015;BME280;45867;52.480;6.056;2023-06-22T04:24:08;101854.72;;;15.74;100.00
60015;BME280;45867;52.480;6.056;2023-06-22T04:26:33;101870.47;;;15.76;100.00
60015;BME280;45867;52.480;6.056;2023-06-22T04:29:02;101867.53;;;15.78;100.00
60015;BME280;45867;52.480;6.056;2023-06-22T04:31:33;101875.22;;;15.84;100.00
60015;BME280;45867;52.480;6.056;2023-06-22T04:34:05;101873.06;;;15.91;100.00
60015;BME280;45867;52.480;6.056;2023-06-22T04:36:34;101862.31;;;16.02;100.00
60015;BME280;45867;52.480;6.056;2023-06-22T04:39:06;101876.94;;;16.09;100.00
60015;BME280;45867;52.480;6.056;2023-06-22T04:41:32;101875.31;;;16.18;100.00
60015;BME280;45867;52.480;6.056;2023-06-22T04:44:18;101869.59;;;16.30;100.00
60015;BME280;45867;52.480;6.056;2023-06-22T04:46:57;101871.66;;;16.38;100.00
60015;BME280;45867;52.480;6.056;2023-06-22T04:49:28;101852.41;;;16.36;100.00
60015;BME280;45867;52.480;6.056;2023-06-22T04:51:59;101866.22;;;16.54;100.00
60015;BME280;45867;52.480;6.056;2023-06-22T04:54:35;101850.00;;;16.69;100.00
60015;BME280;45867;52.480;6.056;2023-06-22T04:57:05;101854.50;;;16.74;100.00
60015;BME280;45867;52.480;6.056;2023-06-22T04:59:37;101838.72;;;16.72;100.00
60015;BME280;45867;52.480;6.056;2023-06-22T05:02:05;101848.75;;;16.91;100.00
60015;BME280;45867;52.480;6.056;2023-06-22T05:04:31;101832.94;;;16.94;100.00
60015;BME280;45867;52.480;6.056;2023-06-22T05:06:58;101830.91;;;17.05;100.00
60015;BME280;45867;52.480;6.056;2023-06-22T05:09:24;101818.94;;;17.21;100.00
60015;BME280;45867;52.480;6.056;2023-06-22T05:11:50;101816.16;;;17.31;100.00
60015;BME280;45867;52.480;6.056;2023-06-22T05:14:16;101808.56;;;17.39;100.00
60015;BME280;45867;52.480;6.056;2023-06-22T05:16:42;101792.38;;;17.49;100.00
60015;BME280;45867;52.480;6.056;2023-06-22T05:19:08;101798.66;;;17.58;100.00
60015;BME280;45867;52.480;6.056;2023-06-22T05:21:34;101796.06;;;17.72;100.00
60015;BME280;45867;52.480;6.056;2023-06-22T05:23:59;101786.50;;;17.85;100.00
60015;BME280;45867;52.480;6.056;2023-06-22T05:26:27;101785.47;;;18.00;100.00
60015;BME280;45867;52.480;6.056;2023-06-22T05:28:53;101775.41;;;18.24;100.00
60015;BME280;45867;52.480;6.056;2023-06-22T05:31:19;101759.75;;;18.45;100.00
60015;BME280;45867;52.480;6.056;2023-06-22T05:33:46;101759.47;;;18.60;100.00
60015;BME280;45867;52.480;6.056;2023-06-22T05:36:12;101750.34;;;18.75;100.00
60015;BME280;45867;52.480;6.056;2023-06-22T05:38:38;101756.69;;;18.93;100.00
60015;BME280;45867;52.480;6.056;2023-06-22T05:41:04;101749.03;;;19.14;100.00
60015;BME280;45867;52.480;6.056;2023-06-22T05:43:29;101741.69;;;19.42;100.00
60015;BME280;45867;52.480;6.056;2023-06-22T05:45:55;101735.59;;;19.50;100.00
60015;BME280;45867;52.480;6.056;2023-06-22T05:48:21;101743.25;;;19.57;100.00
60015;BME280;45867;52.480;6.056;2023-06-22T05:50:47;101742.13;;;19.58;100.00
60015;BME280;45867;52.480;6.056;2023-06-22T05:53:12;101753.28;;;19.88;100.00
60015;BME280;45867;52.480;6.056;2023-06-22T05:55:37;101751.19;;;20.07;100.00
60015;BME280;45867;52.480;6.056;2023-06-22T05:58:03;101754.38;;;20.40;100.00
60015;BME280;45867;52.480;6.056;2023-06-22T06:00:29;101754.03;;;20.65;100.00
60015;BME280;45867;52.480;6.056;2023-06-22T06:02:54;101761.16;;;20.60;100.00
60015;BME280;45867;52.480;6.056;2023-06-22T06:05:19;101762.97;;;20.51;100.00
60015;BME280;45867;52.480;6.056;2023-06-22T06:07:45;101776.44;;;20.82;100.00
60015;BME280;45867;52.480;6.056;2023-06-22T06:10:11;101769.03;;;20.97;100.00
60015;BME280;45867;52.480;6.056;2023-06-22T06:12:36;101770.31;;;21.08;100.00
60015;BME280;45867;52.480;6.056;2023-06-22T06:15:03;101781.34;;;21.55;100.00
60015;BME280;45867;52.480;6.056;2023-06-22T06:17:28;101793.06;;;22.03;100.00
60015;BME280;45867;52.480;6.056;2023-06-22T06:19:53;101790.50;;;22.32;100.00
60015;BME280;45867;52.480;6.056;2023-06-22T06:24:52;101805.75;;;22.75;100.00
60015;BME280;45867;52.480;6.056;2023-06-22T06:27:17;101816.56;;;22.75;100.00
60015;BME280;45867;52.480;6.056;2023-06-22T06:29:45;101807.72;;;22.57;100.00
60015;BME280;45867;52.480;6.056;2023-06-22T06:32:13;101813.16;;;22.49;100.00
60015;BME280;45867;52.480;6.056;2023-06-22T06:34:38;101812.56;;;22.26;100.00
60015;BME280;45867;52.480;6.056;2023-06-22T06:37:07;101812.13;;;22.24;100.00
60015;BME280;45867;52.480;6.056;2023-06-22T06:39:32;101826.06;;;22.17;100.00
60015;BME280;45867;52.480;6.056;2023-06-22T06:41:57;101820.38;;;22.10;100.00
60015;BME280;45867;52.480;6.056;2023-06-22T06:44:22;101826.72;;;21.79;100.00
60015;BME280;45867;52.480;6.056;2023-06-22T06:46:48;101828.16;;;21.85;100.00
60015;BME280;45867;52.480;6.056;2023-06-22T06:49:13;101828.63;;;22.13;100.00
60015;BME280;45867;52.480;6.056;2023-06-22T06:51:39;101837.28;;;22.45;100.00
60015;BME280;45867;52.480;6.056;2023-06-22T06:54:04;101837.34;;;22.83;100.00
60015;BME280;45867;52.480;6.056;2023-06-22T06:56:30;101841.66;;;23.44;100.00
60015;BME280;45867;52.480;6.056;2023-06-22T06:58:55;101830.94;;;23.47;100.00
60015;BME280;45867;52.480;6.056;2023-06-22T07:01:20;101827.13;;;23.90;100.00
60015;BME280;45867;52.480;6.056;2023-06-22T07:03:46;101828.09;;;24.07;100.00
60015;BME280;45867;52.480;6.056;2023-06-22T07:06:12;101830.91;;;23.98;100.00
60015;BME280;45867;52.480;6.056;2023-06-22T07:08:38;101831.25;;;24.42;100.00
60015;BME280;45867;52.480;6.056;2023-06-22T07:11:04;101820.78;;;24.65;100.00
60015;BME280;45867;52.480;6.056;2023-06-22T07:13:30;101828.81;;;24.62;100.00
60015;BME280;45867;52.480;6.056;2023-06-22T07:15:55;101830.50;;;24.91;100.00
60015;BME280;45867;52.480;6.056;2023-06-22T07:18:20;101829.47;;;25.32;100.00
60015;BME280;45867;52.480;6.056;2023-06-22T07:20:46;101842.69;;;25.74;100.00
60015;BME280;45867;52.480;6.056;2023-06-22T07:23:12;101839.78;;;25.67;100.00
60015;BME280;45867;52.480;6.056;2023-06-22T07:25:37;101847.38;;;26.02;100.00
60015;BME280;45867;52.480;6.056;2023-06-22T07:28:05;101840.31;;;25.85;100.00
60015;BME280;45867;52.480;6.056;2023-06-22T07:30:31;101838.03;;;26.15;100.00
60015;BME280;45867;52.480;6.056;2023-06-22T07:32:57;101844.84;;;26.53;100.00
60015;BME280;45867;52.480;6.056;2023-06-22T07:35:23;101839.09;;;26.42;100.00
60015;BME280;45867;52.480;6.056;2023-06-22T07:37:49;101853.84;;;26.41;100.00
60015;BME280;45867;52.480;6.056;2023-06-22T07:40:14;101843.59;;;26.50;100.00
60015;BME280;45867;52.480;6.056;2023-06-22T07:42:39;101847.50;;;27.00;100.00
60015;BME280;45867;52.480;6.056;2023-06-22T07:45:06;101853.78;;;27.01;100.00
60015;BME280;45867;52.480;6.056;2023-06-22T07:47:34;101856.28;;;27.80;100.00
60015;BME280;45867;52.480;6.056;2023-06-22T07:50:00;101864.59;;;27.87;100.00
60015;BME280;45867;52.480;6.056;2023-06-22T07:52:27;101860.63;;;27.85;100.00
60015;BME280;45867;52.480;6.056;2023-06-22T07:54:53;101874.56;;;27.99;100.00
60015;BME280;45867;52.480;6.056;2023-06-22T07:57:19;101870.69;;;27.81;100.00
60015;BME280;45867;52.480;6.056;2023-06-22T07:59:44;101873.84;;;28.02;100.00
60015;BME280;45867;52.480;6.056;2023-06-22T08:02:10;101877.03;;;28.50;100.00
60015;BME280;45867;52.480;6.056;2023-06-22T08:04:36;101877.56;;;28.83;100.00
60015;BME280;45867;52.480;6.056;2023-06-22T08:07:04;101878.00;;;28.85;100.00
60015;BME280;45867;52.480;6.056;2023-06-22T08:09:31;101884.25;;;28.85;100.00
60015;BME280;45867;52.480;6.056;2023-06-22T08:11:57;101885.72;;;28.56;100.00
60015;BME280;45867;52.480;6.056;2023-06-22T08:14:25;101887.84;;;28.43;100.00
60015;BME280;45867;52.480;6.056;2023-06-22T08:16:50;101880.06;;;28.45;100.00
60015;BME280;45867;52.480;6.056;2023-06-22T08:19:15;101867.34;;;28.53;100.00
60015;BME280;45867;52.480;6.056;2023-06-22T08:21:44;101874.31;;;29.23;100.00
60015;BME280;45867;52.480;6.056;2023-06-22T08:24:09;101870.81;;;29.53;100.00
60015;BME280;45867;52.480;6.056;2023-06-22T08:26:35;101883.88;;;30.38;100.00
60015;BME280;45867;52.480;6.056;2023-06-22T08:29:03;101880.31;;;29.96;100.00
60015;BME280;45867;52.480;6.056;2023-06-22T08:31:28;101879.31;;;30.52;100.00
60015;BME280;45867;52.480;6.056;2023-06-22T08:33:54;101882.00;;;30.08;100.00
60015;BME280;45867;52.480;6.056;2023-06-22T08:36:19;101868.00;;;30.13;100.00
60015;BME280;45867;52.480;6.056;2023-06-22T08:38:45;101872.25;;;30.48;100.00
60015;BME280;45867;52.480;6.056;2023-06-22T08:41:15;101864.72;;;30.34;100.00
60015;BME280;45867;52.480;6.056;2023-06-22T08:43:40;101869.06;;;30.87;100.00
60015;BME280;45867;52.480;6.056;2023-06-22T08:46:07;101859.75;;;30.99;100.00
60015;BME280;45867;52.480;6.056;2023-06-22T08:48:32;101847.53;;;30.85;100.00
60015;BME280;45867;52.480;6.056;2023-06-22T08:50:57;101846.34;;;30.83;100.00
60015;BME280;45867;52.480;6.056;2023-06-22T08:53:23;101839.47;;;30.55;100.00
60015;BME280;45867;52.480;6.056;2023-06-22T08:55:48;101838.31;;;30.56;100.00
60015;BME280;45867;52.480;6.056;2023-06-22T08:58:16;101830.00;;;30.42;100.00
60015;BME280;45867;52.480;6.056;2023-06-22T09:00:41;101823.84;;;30.56;100.00
60015;BME280;45867;52.480;6.056;2023-06-22T09:03:16;101808.53;;;30.47;100.00
60015;BME280;45867;52.480;6.056;2023-06-22T09:05:41;101815.94;;;30.99;100.00
60015;BME280;45867;52.480;6.056;2023-06-22T09:08:07;101827.06;;;31.27;100.00
60015;BME280;45867;52.480;6.056;2023-06-22T09:10:32;101821.06;;;31.00;100.00
60015;BME280;45867;52.480;6.056;2023-06-22T09:12:57;101809.63;;;30.87;100.00
60015;BME280;45867;52.480;6.056;2023-06-22T09:15:23;101813.66;;;31.08;100.00
60015;BME280;45867;52.480;6.056;2023-06-22T09:17:48;101812.94;;;30.59;100.00
60015;BME280;45867;52.480;6.056;2023-06-22T09:20:13;101810.91;;;30.49;100.00
60015;BME280;45867;52.480;6.056;2023-06-22T09:22:39;101812.38;;;29.98;100.00
60015;BME280;45867;52.480;6.056;2023-06-22T09:25:05;101811.38;;;30.17;100.00
60015;BME280;45867;52.480;6.056;2023-06-22T09:27:30;101810.72;;;29.53;100.00
60015;BME280;45867;52.480;6.056;2023-06-22T09:29:56;101812.84;;;30.04;100.00
60015;BME280;45867;52.480;6.056;2023-06-22T09:32:23;101808.97;;;31.08;100.00
60015;BME280;45867;52.480;6.056;2023-06-22T09:34:49;101814.91;;;30.59;100.00
60015;BME280;45867;52.480;6.056;2023-06-22T09:37:14;101817.00;;;31.49;100.00
60015;BME280;45867;52.480;6.056;2023-06-22T09:39:39;101828.47;;;31.87;100.00
60015;BME280;45867;52.480;6.056;2023-06-22T09:42:05;101815.97;;;32.76;100.00
60015;BME280;45867;52.480;6.056;2023-06-22T09:44:31;101823.72;;;33.09;100.00
60015;BME280;45867;52.480;6.056;2023-06-22T09:46:57;101822.81;;;33.48;100.00
60015;BME280;45867;52.480;6.056;2023-06-22T09:49:22;101820.88;;;34.12;100.00
60015;BME280;45867;52.480;6.056;2023-06-22T09:51:47;101810.38;;;34.44;100.00
60015;BME280;45867;52.480;6.056;2023-06-22T09:54:14;101814.31;;;33.91;100.00
60015;BME280;45867;52.480;6.056;2023-06-22T09:56:40;101809.25;;;33.82;99.75
60015;BME280;45867;52.480;6.056;2023-06-22T09:59:05;101802.59;;;32.81;100.00
60015;BME280;45867;52.480;6.056;2023-06-22T10:01:31;101798.72;;;32.75;100.00
60015;BME280;45867;52.480;6.056;2023-06-22T10:03:56;101792.03;;;32.76;100.00
60015;BME280;45867;52.480;6.056;2023-06-22T10:06:22;101796.38;;;32.05;100.00
60015;BME280;45867;52.480;6.056;2023-06-22T10:08:47;101793.19;;;31.68;100.00
60015;BME280;45867;52.480;6.056;2023-06-22T10:11:13;101795.50;;;30.78;100.00
60015;BME280;45867;52.480;6.056;2023-06-22T10:13:39;101788.59;;;30.43;100.00
60015;BME280;45867;52.480;6.056;2023-06-22T10:16:05;101789.47;;;30.55;100.00
60015;BME280;45867;52.480;6.056;2023-06-22T10:18:30;101795.78;;;30.18;100.00
60015;BME280;45867;52.480;6.056;2023-06-22T10:20:56;101781.09;;;29.55;100.00
60015;BME280;45867;52.480;6.056;2023-06-22T10:23:21;101786.50;;;29.51;100.00
60015;BME280;45867;52.480;6.056;2023-06-22T10:25:47;101784.19;;;29.53;100.00
60015;BME280;45867;52.480;6.056;2023-06-22T10:28:12;101792.53;;;29.64;100.00
60015;BME280;45867;52.480;6.056;2023-06-22T10:30:41;101778.13;;;29.33;100.00
60015;BME280;45867;52.480;6.056;2023-06-22T10:33:10;101785.19;;;29.38;100.00
60015;BME280;45867;52.480;6.056;2023-06-22T10:35:36;101783.88;;;29.62;100.00
60015;BME280;45867;52.480;6.056;2023-06-22T10:38:05;101779.78;;;29.75;100.00
60015;BME280;45867;52.480;6.056;2023-06-22T10:40:30;101774.63;;;29.67;100.00
60015;BME280;45867;52.480;6.056;2023-06-22T10:42:56;101783.41;;;29.53;100.00
60015;BME280;45867;52.480;6.056;2023-06-22T10:45:21;101786.97;;;29.23;100.00
60015;BME280;45867;52.480;6.056;2023-06-22T10:47:47;101780.72;;;28.96;100.00
60015;BME280;45867;52.480;6.056;2023-06-22T10:50:12;101783.25;;;28.32;100.00
60015;BME280;45867;52.480;6.056;2023-06-22T10:52:38;101777.63;;;28.21;100.00
60015;BME280;45867;52.480;6.056;2023-06-22T10:55:04;101769.97;;;28.30;100.00
60015;BME280;45867;52.480;6.056;2023-06-22T10:57:29;101781.41;;;28.40;100.00
60015;BME280;45867;52.480;6.056;2023-06-22T10:59:54;101792.50;;;28.04;100.00
60015;BME280;45867;52.480;6.056;2023-06-22T11:02:20;101791.13;;;27.91;100.00
60015;BME280;45867;52.480;6.056;2023-06-22T11:04:45;101784.81;;;27.87;100.00
60015;BME280;45867;52.480;6.056;2023-06-22T11:07:11;101789.09;;;27.68;100.00
60015;BME280;45867;52.480;6.056;2023-06-22T11:09:36;101781.59;;;27.81;100.00
60015;BME280;45867;52.480;6.056;2023-06-22T11:12:03;101775.84;;;27.67;100.00
60015;BME280;45867;52.480;6.056;2023-06-22T11:14:29;101773.28;;;27.35;100.00
60015;BME280;45867;52.480;6.056;2023-06-22T11:16:54;101774.50;;;27.18;100.00
60015;BME280;45867;52.480;6.056;2023-06-22T11:19:19;101773.84;;;27.25;100.00
60015;BME280;45867;52.480;6.056;2023-06-22T11:21:45;101765.06;;;27.16;100.00
60015;BME280;45867;52.480;6.056;2023-06-22T11:24:10;101775.38;;;27.42;100.00
60015;BME280;45867;52.480;6.056;2023-06-22T11:26:35;101776.56;;;27.64;100.00
60015;BME280;45867;52.480;6.056;2023-06-22T11:29:02;101776.16;;;27.62;100.00
60015;BME280;45867;52.480;6.056;2023-06-22T11:31:34;101774.97;;;27.63;100.00
60015;BME280;45867;52.480;6.056;2023-06-22T11:33:59;101776.06;;;27.39;100.00
60015;BME280;45867;52.480;6.056;2023-06-22T11:36:25;101766.59;;;27.52;100.00
60015;BME280;45867;52.480;6.056;2023-06-22T11:38:50;101763.59;;;27.57;100.00
60015;BME280;45867;52.480;6.056;2023-06-22T11:41:16;101764.81;;;27.60;100.00
60015;BME280;45867;52.480;6.056;2023-06-22T11:43:42;101758.88;;;27.54;100.00
60015;BME280;45867;52.480;6.056;2023-06-22T11:46:07;101762.00;;;27.76;100.00
60015;BME280;45867;52.480;6.056;2023-06-22T11:48:32;101749.97;;;27.57;100.00
60015;BME280;45867;52.480;6.056;2023-06-22T11:50:58;101748.69;;;27.71;100.00
60015;BME280;45867;52.480;6.056;2023-06-22T11:53:25;101740.78;;;27.85;100.00
60015;BME280;45867;52.480;6.056;2023-06-22T11:55:51;101733.72;;;28.03;100.00
60015;BME280;45867;52.480;6.056;2023-06-22T11:58:17;101731.84;;;27.84;100.00
60015;BME280;45867;52.480;6.056;2023-06-22T12:00:43;101717.31;;;27.57;100.00
60015;BME280;45867;52.480;6.056;2023-06-22T12:03:08;101720.91;;;27.61;100.00
60015;BME280;45867;52.480;6.056;2023-06-22T12:05:34;101728.16;;;27.54;100.00
60015;BME280;45867;52.480;6.056;2023-06-22T12:07:59;101724.03;;;27.63;100.00
60015;BME280;45867;52.480;6.056;2023-06-22T12:10:26;101719.69;;;27.59;100.00
60015;BME280;45867;52.480;6.056;2023-06-22T12:12:51;101708.41;;;27.60;100.00
60015;BME280;45867;52.480;6.056;2023-06-22T12:15:17;101702.44;;;27.51;100.00
60015;BME280;45867;52.480;6.056;2023-06-22T12:17:42;101703.25;;;27.32;100.00
60015;BME280;45867;52.480;6.056;2023-06-22T12:20:08;101713.72;;;27.14;100.00
60015;BME280;45867;52.480;6.056;2023-06-22T12:22:34;101709.09;;;27.15;100.00
60015;BME280;45867;52.480;6.056;2023-06-22T12:25:00;101700.25;;;27.18;100.00
60015;BME280;45867;52.480;6.056;2023-06-22T12:27:27;101691.63;;;26.96;100.00
60015;BME280;45867;52.480;6.056;2023-06-22T12:29:53;101687.69;;;26.94;100.00
60015;BME280;45867;52.480;6.056;2023-06-22T12:32:18;101703.84;;;27.06;100.00
60015;BME280;45867;52.480;6.056;2023-06-22T12:34:44;101701.56;;;27.08;100.00
60015;BME280;45867;52.480;6.056;2023-06-22T12:37:10;101702.78;;;27.11;100.00
60015;BME280;45867;52.480;6.056;2023-06-22T12:39:35;101683.75;;;27.30;100.00
60015;BME280;45867;52.480;6.056;2023-06-22T12:42:01;101701.28;;;27.13;100.00